createdAt,value
2023-03-26T00:01:39.211Z,4.60
2023-03-26T00:04:43.825Z,4.15
2023-03-26T00:07:48.777Z,5.10
2023-03-26T00:10:52.507Z,6.28
2023-03-26T00:13:58.302Z,3.70
2023-03-26T00:17:04.292Z,3.97
2023-03-26T00:20:09.903Z,4.43
2023-03-26T00:23:13.581Z,3.50
2023-03-26T00:26:18.977Z,4.70
2023-03-26T00:29:24.689Z,6.43
2023-03-26T00:32:30.850Z,3.70
2023-03-26T00:35:37.661Z,3.72
2023-03-26T00:38:44.214Z,3.13
2023-03-26T00:41:47.993Z,3.90
2023-03-26T00:44:55.135Z,4.15
2023-03-26T00:48:02.596Z,4.60
2023-03-26T00:51:08.964Z,4.32
2023-03-26T00:54:12.767Z,4.53
2023-03-26T00:57:25.700Z,3.97
2023-03-26T01:00:39.673Z,4.35
2023-03-26T01:03:53.556Z,4.23
2023-03-26T01:07:12.764Z,5.20
2023-03-26T01:10:16.571Z,4.28
2023-03-26T01:13:24.163Z,2.80
2023-03-26T01:16:33.454Z,2.20
2023-03-26T01:19:49.874Z,3.08
2023-03-26T01:23:02.342Z,5.90
2023-03-26T01:26:26.149Z,3.23
2023-03-26T01:29:40.393Z,4.43
2023-03-26T01:33:00.737Z,3.35
2023-03-26T01:36:14.233Z,2.80
2023-03-26T01:39:27.102Z,3.67
2023-03-26T01:42:43.513Z,5.22
2023-03-26T01:45:52.695Z,4.13
2023-03-26T01:48:57.459Z,6.88
2023-03-26T01:52:01.197Z,4.10
2023-03-26T01:55:06.798Z,4.65
2023-03-26T01:58:22.614Z,4.43
2023-03-26T02:01:36.888Z,3.45
2023-03-26T02:04:53.601Z,3.42
2023-03-26T02:08:12.054Z,3.43
2023-03-26T02:11:16.946Z,3.25
2023-03-26T02:14:22.508Z,3.33
2023-03-26T02:17:26.224Z,3.55
2023-03-26T02:20:30.521Z,3.90
2023-03-26T02:23:35.907Z,4.43
2023-03-26T02:26:40.370Z,4.15
2023-03-26T02:29:50.309Z,3.67
2023-03-26T02:32:59.370Z,2.70
2023-03-26T02:36:10.755Z,3.88
2023-03-26T02:39:15.352Z,5.13
2023-03-26T02:42:25.585Z,4.70
2023-03-26T02:45:31.027Z,3.85
2023-03-26T02:48:57.651Z,3.55
2023-03-26T02:52:06.452Z,3.83
2023-03-26T02:55:11.420Z,2.97
2023-03-26T02:58:17.722Z,3.83
2023-03-26T03:01:23.297Z,4.63
2023-03-26T03:04:30.212Z,2.83
2023-03-26T03:07:38.703Z,3.75
2023-03-26T03:10:43.675Z,3.67
2023-03-26T03:14:08.047Z,4.13
2023-03-26T03:17:13.630Z,4.95
2023-03-26T03:20:18.490Z,3.67
2023-03-26T03:23:22.812Z,9.63
2023-03-26T03:26:32.251Z,5.80
2023-03-26T03:29:45.681Z,3.70
2023-03-26T03:33:09.533Z,2.77
2023-03-26T03:36:20.343Z,3.47
2023-03-26T03:39:33.013Z,3.03
2023-03-26T03:42:37.007Z,2.30
2023-03-26T03:45:42.245Z,3.05
2023-03-26T03:49:25.875Z,3.90
2023-03-26T03:52:30.215Z,2.42
2023-03-26T03:55:34.100Z,4.03
2023-03-26T03:58:37.914Z,6.13
2023-03-26T04:01:48.630Z,3.30
2023-03-26T04:05:08.852Z,3.20
2023-03-26T04:08:15.402Z,3.03
2023-03-26T04:11:25.285Z,3.17
2023-03-26T04:14:58.069Z,3.83
2023-03-26T04:18:02.012Z,3.13
2023-03-26T04:21:08.591Z,4.18
2023-03-26T04:24:12.797Z,3.40
2023-03-26T04:27:37.322Z,8.60
2023-03-26T04:31:05.567Z,3.85
2023-03-26T04:34:25.352Z,3.40
2023-03-26T04:37:47.757Z,4.70
2023-03-26T04:41:00.844Z,3.55
2023-03-26T04:44:22.429Z,4.53
2023-03-26T04:47:39.674Z,4.07
2023-03-26T04:50:46.567Z,3.38
2023-03-26T04:53:55.408Z,3.15
2023-03-26T04:57:08.903Z,2.63
2023-03-26T05:00:23.610Z,3.95
2023-03-26T05:03:32.324Z,5.28
2023-03-26T05:06:41.876Z,3.97
2023-03-26T05:09:57.508Z,3.13
2023-03-26T05:13:20.266Z,3.42
2023-03-26T05:16:28.106Z,3.72
2023-03-26T05:19:41.847Z,4.83
2023-03-26T05:22:46.058Z,3.67
2023-03-26T05:26:00.436Z,3.95
2023-03-26T05:29:05.713Z,3.15
2023-03-26T05:32:12.771Z,4.93
2023-03-26T05:35:18.090Z,2.97
2023-03-26T05:38:22.226Z,2.17
2023-03-26T05:41:27.606Z,5.87
2023-03-26T05:44:31.362Z,3.53
2023-03-26T05:47:39.310Z,3.05
2023-03-26T05:50:43.138Z,4.83
2023-03-26T05:53:47.357Z,3.65
2023-03-26T05:56:58.631Z,4.25
2023-03-26T06:00:24.204Z,4.95
2023-03-26T06:03:30.874Z,3.72
2023-03-26T06:06:48.030Z,3.67
2023-03-26T06:09:53.380Z,3.60
2023-03-26T06:12:58.909Z,2.57
2023-03-26T06:16:02.697Z,5.43
2023-03-26T06:19:09.391Z,4.50
2023-03-26T06:22:39.417Z,3.27
2023-03-26T06:26:03.332Z,2.20
2023-03-26T06:29:27.576Z,2.17
2023-03-26T06:32:42.186Z,3.80
2023-03-26T06:35:50.316Z,2.30
2023-03-26T06:38:54.786Z,3.38
2023-03-26T06:41:58.763Z,3.55
2023-03-26T06:45:22.319Z,4.10
2023-03-26T06:49:04.561Z,3.40
2023-03-26T06:52:17.147Z,3.60
2023-03-26T06:55:41.962Z,3.97
2023-03-26T06:59:12.058Z,3.90
2023-03-26T07:02:36.728Z,3.17
2023-03-26T07:05:58.836Z,2.58
2023-03-26T07:09:26.288Z,4.38
2023-03-26T07:12:48.439Z,4.63
2023-03-26T07:16:15.677Z,3.05
2023-03-26T07:19:46.856Z,2.60
2023-03-26T07:22:51.624Z,2.13
2023-03-26T07:26:32.212Z,4.03
2023-03-26T07:29:58.774Z,1.77
2023-03-26T07:33:27.784Z,3.17
2023-03-26T07:36:58.828Z,2.28
2023-03-26T07:40:44.757Z,1.20
2023-03-26T07:44:35.843Z,1.77
2023-03-26T07:48:18.871Z,1.45
2023-03-26T07:51:43.551Z,1.65
2023-03-26T07:54:55.863Z,1.97
2023-03-26T07:58:46.314Z,1.58
2023-03-26T08:03:01.226Z,2.03
2023-03-26T08:06:40.887Z,3.00
2023-03-26T08:10:07.792Z,7.57
2023-03-26T08:14:03.618Z,1.95
2023-03-26T08:17:16.210Z,1.88
2023-03-26T08:20:34.398Z,2.72
2023-03-26T08:23:56.654Z,2.15
2023-03-26T08:27:18.901Z,3.90
2023-03-26T08:30:26.035Z,4.17
2023-03-26T08:33:32.362Z,2.95
2023-03-26T08:36:36.968Z,1.40
2023-03-26T08:39:42.239Z,2.57
2023-03-26T08:43:22.866Z,2.22
2023-03-26T08:46:57.822Z,1.80
2023-03-26T08:50:43.233Z,2.65
2023-03-26T08:54:48.359Z,3.05
2023-03-26T08:58:44.617Z,2.28
2023-03-26T09:02:34.233Z,3.63
2023-03-26T09:06:08.316Z,2.37
2023-03-26T09:09:51.626Z,2.92
2023-03-26T09:13:53.040Z,2.88
2023-03-26T09:17:57.309Z,2.70
2023-03-26T09:21:44.213Z,3.05
2023-03-26T09:25:35.305Z,5.88
2023-03-26T09:29:36.601Z,4.20
2023-03-26T09:34:00.095Z,1.35
2023-03-26T09:37:26.636Z,2.22
2023-03-26T09:40:44.167Z,3.08
2023-03-26T09:44:25.308Z,2.13
2023-03-26T09:47:59.060Z,2.00
2023-03-26T09:51:43.185Z,3.00
2023-03-26T09:55:45.517Z,4.13
2023-03-26T09:59:22.343Z,1.77
2023-03-26T10:02:53.842Z,2.00
2023-03-26T10:06:13.635Z,3.80
2023-03-26T10:09:41.558Z,3.58
2023-03-26T10:13:04.856Z,9.25
2023-03-26T10:16:29.816Z,2.75
2023-03-26T10:19:54.900Z,1.93
2023-03-26T10:23:18.926Z,1.25
2023-03-26T10:27:09.133Z,2.20
2023-03-26T10:30:56.659Z,2.13
2023-03-26T10:34:28.863Z,1.92
2023-03-26T10:37:52.741Z,2.00
2023-03-26T10:41:07.567Z,1.50
2023-03-26T10:44:48.798Z,2.08
2023-03-26T10:48:27.100Z,1.88
2023-03-26T10:51:53.437Z,1.20
2023-03-26T10:55:11.950Z,2.37
2023-03-26T10:58:25.087Z,2.50
2023-03-26T11:01:43.004Z,3.05
2023-03-26T11:05:02.884Z,2.43
2023-03-26T11:08:13.631Z,2.92
2023-03-26T11:11:30.804Z,2.53
2023-03-26T11:14:44.243Z,1.50
2023-03-26T11:18:06.693Z,2.42
2023-03-26T11:21:25.921Z,2.30
2023-03-26T11:25:04.497Z,1.25
2023-03-26T11:28:29.412Z,1.83
2023-03-26T11:31:52.111Z,2.15
2023-03-26T11:35:05.505Z,1.70
2023-03-26T11:38:22.880Z,3.53
2023-03-26T11:41:31.126Z,1.40
2023-03-26T11:44:55.395Z,2.10
2023-03-26T11:48:09.761Z,3.92
2023-03-26T11:51:24.393Z,2.05
2023-03-26T11:54:29.716Z,1.10
2023-03-26T11:57:43.198Z,1.15
2023-03-26T12:00:48.666Z,1.70
2023-03-26T12:03:59.971Z,1.42
2023-03-26T12:07:16.975Z,1.65
2023-03-26T12:10:38.726Z,2.03
2023-03-26T12:13:53.291Z,2.13
2023-03-26T12:17:06.755Z,2.50
2023-03-26T12:20:38.742Z,1.55
2023-03-26T12:23:57.151Z,1.42
2023-03-26T12:27:25.961Z,1.20
2023-03-26T12:30:33.787Z,0.98
2023-03-26T12:33:38.958Z,2.10
2023-03-26T12:36:52.787Z,2.20
2023-03-26T12:40:15.011Z,2.33
2023-03-26T12:44:47.004Z,2.40
2023-03-26T12:47:15.257Z,1.40
2023-03-26T12:50:59.471Z,1.80
2023-03-26T12:54:25.969Z,3.17
2023-03-26T12:57:38.948Z,2.05
2023-03-26T13:01:02.596Z,1.77
2023-03-26T13:04:58.460Z,2.90
2023-03-26T13:08:41.584Z,2.07
2023-03-26T13:12:03.962Z,1.33
2023-03-26T13:15:26.435Z,2.55
2023-03-26T13:18:48.915Z,4.07
2023-03-26T13:22:21.274Z,2.80
2023-03-26T13:25:41.974Z,1.33
2023-03-26T13:29:04.270Z,1.30
2023-03-26T13:32:21.300Z,2.90
2023-03-26T13:35:37.541Z,2.22
2023-03-26T13:38:58.800Z,1.70
2023-03-26T13:42:33.626Z,2.93
2023-03-26T13:45:55.337Z,2.60
2023-03-26T13:49:05.686Z,1.27
2023-03-26T13:52:21.307Z,1.98
2023-03-26T13:55:31.807Z,2.35
2023-03-26T13:58:42.978Z,2.13
2023-03-26T14:01:55.553Z,3.00
2023-03-26T14:05:08.653Z,2.03
2023-03-26T14:08:23.635Z,4.07
2023-03-26T14:11:43.823Z,2.45
2023-03-26T14:14:57.278Z,2.23
2023-03-26T14:18:25.753Z,2.95
2023-03-26T14:22:11.421Z,3.60
2023-03-26T14:25:40.765Z,3.50
2023-03-26T14:29:31.552Z,3.80
2023-03-26T14:32:59.381Z,4.75
2023-03-26T14:36:17.661Z,4.13
2023-03-26T14:39:55.217Z,2.28
2023-03-26T14:43:56.481Z,2.80
2023-03-26T14:47:17.455Z,2.33
2023-03-26T14:51:02.534Z,3.72
2023-03-26T14:54:12.421Z,4.25
2023-03-26T14:58:24.542Z,6.53
2023-03-26T15:02:02.292Z,5.97
2023-03-26T15:06:00.359Z,2.42
2023-03-26T15:09:52.912Z,2.27
2023-03-26T15:13:19.637Z,2.22
2023-03-26T15:17:14.329Z,2.25
2023-03-26T15:21:10.641Z,2.97
2023-03-26T15:24:56.927Z,3.55
2023-03-26T15:29:13.056Z,2.92
2023-03-26T15:33:08.832Z,3.92
2023-03-26T15:37:05.251Z,2.83
2023-03-26T15:40:41.762Z,2.70
2023-03-26T15:44:23.720Z,5.45
2023-03-26T15:47:57.431Z,2.77
2023-03-26T15:51:26.124Z,4.10
2023-03-26T15:54:47.717Z,4.28
2023-03-26T15:58:03.811Z,5.37
2023-03-26T16:01:21.525Z,3.95
2023-03-26T16:04:50.421Z,6.93
2023-03-26T16:08:11.509Z,8.75
2023-03-26T16:11:16.474Z,4.33
2023-03-26T16:14:24.197Z,4.57
2023-03-26T16:17:28.630Z,4.38
2023-03-26T16:20:46.803Z,5.80
2023-03-26T16:23:58.105Z,8.13
2023-03-26T16:27:29.869Z,6.32
2023-03-26T16:30:34.403Z,5.20
2023-03-26T16:33:45.469Z,4.67
2023-03-26T16:36:54.104Z,3.55
2023-03-26T16:40:53.084Z,5.72
2023-03-26T16:44:13.781Z,5.00
2023-03-26T16:47:27.141Z,5.35
2023-03-26T16:50:48.566Z,6.00
2023-03-26T16:54:06.369Z,4.82
2023-03-26T16:57:26.096Z,4.93
2023-03-26T17:00:52.560Z,5.60
2023-03-26T17:04:05.666Z,6.75
2023-03-26T17:07:20.552Z,5.17
2023-03-26T17:10:37.694Z,5.22
2023-03-26T17:13:54.242Z,4.18
2023-03-26T17:17:36.709Z,4.70
2023-03-26T17:20:51.680Z,8.38
2023-03-26T17:24:16.213Z,4.75
2023-03-26T17:27:44.158Z,5.85
2023-03-26T17:31:04.405Z,6.17
2023-03-26T17:34:46.548Z,6.68
2023-03-26T17:37:51.458Z,5.45
2023-03-26T17:40:58.708Z,5.60
2023-03-26T17:44:38.252Z,7.15
2023-03-26T17:47:49.933Z,5.20
2023-03-26T17:51:00.266Z,8.38
2023-03-26T17:54:08.945Z,6.63
2023-03-26T17:57:21.081Z,7.30
2023-03-26T18:00:32.583Z,6.80
2023-03-26T18:03:44.228Z,7.10
2023-03-26T18:07:19.038Z,7.88
2023-03-26T18:10:51.549Z,8.05
2023-03-26T18:14:52.583Z,8.53
2023-03-26T18:18:12.640Z,6.32
2023-03-26T18:21:31.695Z,6.60
2023-03-26T18:24:42.161Z,14.63
2023-03-26T18:27:46.041Z,37.88
2023-03-26T18:30:52.048Z,26.42
2023-03-26T18:34:05.094Z,30.85
2023-03-26T18:37:21.039Z,21.30
2023-03-26T18:40:30.335Z,13.13
2023-03-26T18:43:44.280Z,11.95
2023-03-26T18:46:48.149Z,12.10
2023-03-26T18:49:59.276Z,14.18
2023-03-26T18:53:05.074Z,14.93
2023-03-26T18:56:31.368Z,12.18
2023-03-26T18:59:38.104Z,23.00
2023-03-26T19:02:47.742Z,20.17
2023-03-26T19:05:56.663Z,16.52
2023-03-26T19:09:01.382Z,26.57
2023-03-26T19:12:10.152Z,25.00
2023-03-26T19:15:17.902Z,47.90
2023-03-26T19:18:27.427Z,44.53
2023-03-26T19:21:35.437Z,30.70
2023-03-26T19:24:39.665Z,26.45
2023-03-26T19:27:44.329Z,54.42
2023-03-26T19:30:49.748Z,56.83
2023-03-26T19:34:01.469Z,58.13
2023-03-26T19:37:20.775Z,63.47
2023-03-26T19:40:30.020Z,60.03
2023-03-26T19:43:34.194Z,57.60
2023-03-26T19:46:53.449Z,60.88
2023-03-26T19:50:01.427Z,58.20
2023-03-26T19:53:18.880Z,57.67
2023-03-26T19:56:23.945Z,60.53
2023-03-26T19:59:27.921Z,60.55
2023-03-26T20:02:31.686Z,52.17
2023-03-26T20:05:37.435Z,39.90
2023-03-26T20:08:42.831Z,55.47
2023-03-26T20:11:47.061Z,54.17
2023-03-26T20:14:50.524Z,44.53
2023-03-26T20:17:55.540Z,37.90
2023-03-26T20:20:59.313Z,41.43
2023-03-26T20:24:14.617Z,56.90
2023-03-26T20:27:18.949Z,33.22
2023-03-26T20:30:36.960Z,26.90
2023-03-26T20:33:41.353Z,17.90
2023-03-26T20:36:46.840Z,18.48
2023-03-26T20:39:51.992Z,20.30
2023-03-26T20:42:56.068Z,14.73
2023-03-26T20:45:59.579Z,15.77
2023-03-26T20:49:03.485Z,13.35
2023-03-26T20:52:07.534Z,13.20
2023-03-26T20:55:15.748Z,14.27
2023-03-26T20:58:31.818Z,7.38
2023-03-26T21:01:37.695Z,9.20
2023-03-26T21:04:41.551Z,8.73
2023-03-26T21:07:46.759Z,4.13
2023-03-26T21:10:52.944Z,4.22
2023-03-26T21:14:08.026Z,4.97
2023-03-26T21:17:18.469Z,3.90
2023-03-26T21:20:25.415Z,3.83
2023-03-26T21:23:40.058Z,4.70
2023-03-26T21:26:57.093Z,7.72
2023-03-26T21:30:01.378Z,4.85
2023-03-26T21:33:06.389Z,3.08
2023-03-26T21:36:11.874Z,3.58
2023-03-26T21:39:16.805Z,4.75
2023-03-26T21:42:26.937Z,4.70
2023-03-26T21:45:32.136Z,2.67
2023-03-26T21:48:36.713Z,3.53
2023-03-26T21:51:41.532Z,4.15
2023-03-26T21:54:46.669Z,4.20
2023-03-26T21:58:15.544Z,2.13
2023-03-26T22:01:35.583Z,5.00
2023-03-26T22:04:50.436Z,3.78
2023-03-26T22:07:59.907Z,3.95
2023-03-26T22:11:04.202Z,3.70
2023-03-26T22:14:09.248Z,3.85
2023-03-26T22:17:13.499Z,2.70
2023-03-26T22:20:19.447Z,3.72
2023-03-26T22:23:23.418Z,2.85
2023-03-26T22:26:27.200Z,3.60
2023-03-26T22:29:33.410Z,3.83
2023-03-26T22:32:36.926Z,5.50
2023-03-26T22:35:43.276Z,4.80
2023-03-26T22:38:46.881Z,3.60
2023-03-26T22:41:50.641Z,5.47
2023-03-26T22:44:55.667Z,6.57
2023-03-26T22:48:03.427Z,3.63
2023-03-26T22:51:10.443Z,6.55
2023-03-26T22:54:14.525Z,6.63
2023-03-26T22:57:18.055Z,6.73
2023-03-26T23:00:23.455Z,6.47
2023-03-26T23:03:34.824Z,5.70
2023-03-26T23:06:41.032Z,7.47
2023-03-26T23:09:45.740Z,6.22
2023-03-26T23:12:49.672Z,6.22
2023-03-26T23:15:57.065Z,7.05
2023-03-26T23:19:01.405Z,9.10
2023-03-26T23:22:05.010Z,9.98
2023-03-26T23:25:10.916Z,13.73
2023-03-26T23:28:14.646Z,9.63
2023-03-26T23:31:20.102Z,10.63
2023-03-26T23:34:23.537Z,12.75
2023-03-26T23:37:29.362Z,10.15
2023-03-26T23:40:33.367Z,11.95
2023-03-26T23:43:39.659Z,17.00
2023-03-26T23:47:00.623Z,16.67
2023-03-26T23:50:06.770Z,16.50
2023-03-26T23:53:10.234Z,18.20
2023-03-26T23:56:15.409Z,17.33
2023-03-26T23:59:19.183Z,20.07
